Time,TemperatureF,DewpointF,PressureIn,WindDirection,WindDirectionDegrees,WindSpeedMPH,WindSpeedGustMPH,Humidity,HourlyPrecipIn,Conditions,Clouds,dailyrainin,SoftwareType,DateUTC
2013-06-12 00:00:00,65.9,18.0,20.29,SSE,157,2.0,4.0,16,0.00,,,0.00,weatherlink.com 1.10,2013-06-12 06:00:00,
2013-06-12 00:15:00,65.5,18.0,20.29,SSE,157,3.0,5.0,16,0.00,,,0.00,weatherlink.com 1.10,2013-06-12 06:15:00,
2013-06-12 00:30:00,65.3,18.0,20.29,SSE,157,2.0,5.0,16,0.00,,,0.00,weatherlink.com 1.10,2013-06-12 06:30:00,
2013-06-12 00:45:00,65.5,18.0,20.29,SSE,157,0.0,4.0,16,0.00,,,0.00,weatherlink.com 1.10,2013-06-12 06:45:00,
2013-06-12 01:00:00,66.5,19.0,20.29,SSE,153,0.0,6.0,16,0.00,,,0.00,weatherlink.com 1.10,2013-06-12 07:00:00,
2013-06-12 01:15:00,66.0,20.0,20.29,SE,144,4.0,6.0,17,0.00,,,0.00,weatherlink.com 1.10,2013-06-12 07:15:00,
2013-06-12 01:30:00,66.8,20.0,20.29,SE,130,0.0,7.0,17,0.00,,,0.00,weatherlink.com 1.10,2013-06-12 07:30:00,
2013-06-12 01:45:00,66.4,20.0,20.29,SE,130,0.0,5.0,17,0.00,,,0.00,weatherlink.com 1.10,2013-06-12 07:45:00,
2013-06-12 02:00:00,65.8,20.0,20.29,SE,128,2.0,6.0,17,0.00,,,0.00,weatherlink.com 1.10,2013-06-12 08:00:00,
2013-06-12 02:15:00,65.8,20.0,20.29,SE,126,3.0,6.0,17,0.00,,,0.00,weatherlink.com 1.10,2013-06-12 08:15:00,
2013-06-12 02:30:00,65.4,19.0,20.30,SE,126,0.0,4.0,17,0.00,,,0.00,weatherlink.com 1.10,2013-06-12 08:30:00,
2013-06-12 02:45:00,64.2,20.0,20.30,SE,126,0.0,1.0,18,0.00,,,0.00,weatherlink.com 1.10,2013-06-12 08:45:00,
2013-06-12 03:00:00,62.5,20.0,20.30,SE,126,0.0,1.0,19,0.00,,,0.00,weatherlink.com 1.10,2013-06-12 09:00:00,
2013-06-12 03:15:00,61.6,19.0,20.30,SE,126,0.0,3.0,19,0.00,,,0.00,weatherlink.com 1.10,2013-06-12 09:15:00,
2013-06-12 03:31:00,62.5,20.0,20.31,SE,126,0.0,1.0,19,0.00,,,0.00,weatherlink.com 1.10,2013-06-12 09:31:00,
2013-06-12 03:46:00,62.6,21.0,20.31,SE,127,2.0,6.0,20,0.00,,,0.00,weatherlink.com 1.10,2013-06-12 09:46:00,
2013-06-12 04:01:00,63.6,20.0,20.32,SE,126,0.0,3.0,19,0.00,,,0.00,weatherlink.com 1.10,2013-06-12 10:01:00,
2013-06-12 04:16:00,63.1,20.0,20.32,SE,127,0.0,4.0,19,0.00,,,0.00,weatherlink.com 1.10,2013-06-12 10:16:00,
2013-06-12 04:31:00,61.0,19.0,20.32,SE,127,0.0,2.0,20,0.00,,,0.00,weatherlink.com 1.10,2013-06-12 10:31:00,
2013-06-12 04:46:00,60.0,20.0,20.33,SE,127,0.0,2.0,21,0.00,,,0.00,weatherlink.com 1.10,2013-06-12 10:46:00,
2013-06-12 05:01:00,60.2,20.0,20.33,SE,127,0.0,1.0,21,0.00,,,0.00,weatherlink.com 1.10,2013-06-12 11:01:00,
2013-06-12 05:16:00,58.8,19.0,20.34,SE,126,0.0,1.0,21,0.00,,,0.00,weatherlink.com 1.10,2013-06-12 11:16:00,
2013-06-12 05:31:00,56.6,18.0,20.35,SE,127,0.0,0.0,22,0.00,,,0.00,weatherlink.com 1.10,2013-06-12 11:31:00,
2013-06-12 05:46:00,56.1,19.0,20.34,SE,126,0.0,0.0,23,0.00,,,0.00,weatherlink.com 1.10,2013-06-12 11:46:00,
2013-06-12 06:02:00,57.4,19.0,20.35,SE,126,0.0,1.0,22,0.00,,,0.00,weatherlink.com 1.10,2013-06-12 12:02:00,
2013-06-12 06:17:00,57.5,19.0,20.36,SE,126,0.0,0.0,22,0.00,,,0.00,weatherlink.com 1.10,2013-06-12 12:17:00,
2013-06-12 06:32:00,58.7,21.0,20.36,SE,126,0.0,1.0,23,0.00,,,0.00,weatherlink.com 1.10,2013-06-12 12:32:00,
2013-06-12 06:47:00,60.3,21.0,20.36,SE,126,0.0,0.0,22,0.00,,,0.00,weatherlink.com 1.10,2013-06-12 12:47:00,
2013-06-12 07:02:00,61.9,22.0,20.36,SE,126,0.0,1.0,22,0.00,,,0.00,weatherlink.com 1.10,2013-06-12 13:02:00,
2013-06-12 07:17:00,64.2,24.0,20.36,SE,127,0.0,1.0,22,0.00,,,0.00,weatherlink.com 1.10,2013-06-12 13:17:00,
2013-06-12 07:32:00,63.9,26.0,20.38,SE,128,0.0,1.0,24,0.00,,,0.00,weatherlink.com 1.10,2013-06-12 13:32:00,
2013-06-12 07:47:00,64.1,25.0,20.38,SE,128,0.0,1.0,23,0.00,,,0.00,weatherlink.com 1.10,2013-06-12 13:47:00,
2013-06-12 08:02:00,65.2,25.0,20.38,SE,127,0.0,1.0,22,0.00,,,0.00,weatherlink.com 1.10,2013-06-12 14:02:00,
2013-06-12 08:17:00,66.7,25.0,20.38,SE,127,0.0,1.0,21,0.00,,,0.00,weatherlink.com 1.10,2013-06-12 14:17:00,
2013-06-12 08:32:00,69.0,27.0,20.38,SE,127,0.0,1.0,21,0.00,,,0.00,weatherlink.com 1.10,2013-06-12 14:32:00,
2013-06-12 08:47:00,70.6,28.0,20.37,SE,126,0.0,1.0,20,0.00,,,0.00,weatherlink.com 1.10,2013-06-12 14:47:00,
2013-06-12 09:02:00,73.3,30.0,20.37,SE,126,0.0,3.0,20,0.00,,,0.00,weatherlink.com 1.10,2013-06-12 15:02:00,
2013-06-12 09:17:00,76.7,31.0,20.38,ENE,65,3.0,8.0,19,0.00,,,0.00,weatherlink.com 1.10,2013-06-12 15:17:00,
2013-06-12 09:32:00,77.5,31.0,20.38,NNE,17,4.0,7.0,18,0.00,,,0.00,weatherlink.com 1.10,2013-06-12 15:32:00,
2013-06-12 09:47:00,78.3,31.0,20.38,NNE,13,1.0,6.0,18,0.00,,,0.00,weatherlink.com 1.10,2013-06-12 15:47:00,
2013-06-12 10:02:00,78.7,29.0,20.37,NNE,13,0.0,4.0,16,0.00,,,0.00,weatherlink.com 1.10,2013-06-12 16:02:00,
2013-06-12 10:17:00,80.2,30.0,20.37,North,360,6.0,6.0,16,0.00,,,0.00,weatherlink.com 1.10,2013-06-12 16:17:00,
2013-06-12 10:32:00,81.7,30.0,20.37,North,355,2.0,8.0,15,0.00,,,0.00,weatherlink.com 1.10,2013-06-12 16:32:00,
2013-06-12 10:47:00,82.8,29.0,20.37,WNW,298,5.0,7.0,14,0.00,,,0.00,weatherlink.com 1.10,2013-06-12 16:47:00,
2013-06-12 11:02:00,83.2,27.0,20.37,WNW,296,6.0,7.0,13,0.00,,,0.00,weatherlink.com 1.10,2013-06-12 17:02:00,
2013-06-12 11:17:00,84.1,28.0,20.37,West,278,4.0,7.0,13,0.00,,,0.00,weatherlink.com 1.10,2013-06-12 17:17:00,
2013-06-12 11:32:00,84.7,29.0,20.37,NNW,336,7.0,9.0,13,0.00,,,0.00,weatherlink.com 1.10,2013-06-12 17:32:00,
2013-06-12 11:47:00,85.4,27.0,20.36,West,265,0.0,11.0,12,0.00,,,0.00,weatherlink.com 1.10,2013-06-12 17:47:00,
2013-06-12 12:02:00,86.1,28.0,20.35,NW,304,12.0,12.0,12,0.00,,,0.00,weatherlink.com 1.10,2013-06-12 18:02:00,
2013-06-12 12:17:00,87.9,27.0,20.34,West,280,6.0,9.0,11,0.00,,,0.00,weatherlink.com 1.10,2013-06-12 18:17:00,
2013-06-12 12:32:00,88.4,30.0,20.34,NNW,348,3.0,9.0,12,0.00,,,0.00,weatherlink.com 1.10,2013-06-12 18:32:00,
2013-06-12 12:47:00,89.7,29.0,20.33,NNW,334,8.0,12.0,11,0.00,,,0.00,weatherlink.com 1.10,2013-06-12 18:47:00,
2013-06-12 13:02:00,89.1,28.0,20.33,North,355,3.0,9.0,11,0.00,,,0.00,weatherlink.com 1.10,2013-06-12 19:02:00,
2013-06-12 13:17:00,89.2,28.0,20.33,NW,321,6.0,8.0,11,0.00,,,0.00,weatherlink.com 1.10,2013-06-12 19:17:00,
2013-06-12 13:32:00,90.9,29.0,20.32,NNW,342,4.0,12.0,11,0.00,,,0.00,weatherlink.com 1.10,2013-06-12 19:32:00,
2013-06-12 13:47:00,89.3,28.0,20.32,North,355,5.0,11.0,11,0.00,,,0.00,weatherlink.com 1.10,2013-06-12 19:47:00,
2013-06-12 14:02:00,90.5,29.0,20.31,NNE,13,0.0,9.0,11,0.00,,,0.00,weatherlink.com 1.10,2013-06-12 20:02:00,
2013-06-12 14:17:00,91.3,30.0,20.30,West,273,6.0,16.0,11,0.00,,,0.00,weatherlink.com 1.10,2013-06-12 20:17:00,
2013-06-12 14:32:00,90.3,29.0,20.30,West,277,0.0,14.0,11,0.00,,,0.00,weatherlink.com 1.10,2013-06-12 20:32:00,
2013-06-12 14:48:00,89.1,30.0,20.29,West,265,0.0,10.0,12,0.00,,,0.00,weatherlink.com 1.10,2013-06-12 20:48:00,
2013-06-12 15:02:00,89.5,28.0,20.29,WNW,291,6.0,11.0,11,0.00,,,0.00,weatherlink.com 1.10,2013-06-12 21:02:00,
2013-06-12 15:18:00,89.7,31.0,20.28,West,266,2.0,10.0,12,0.00,,,0.00,weatherlink.com 1.10,2013-06-12 21:18:00,
2013-06-12 15:33:00,90.0,29.0,20.28,West,259,4.0,9.0,11,0.00,,,0.00,weatherlink.com 1.10,2013-06-12 21:33:00,
2013-06-12 15:48:00,89.7,29.0,20.27,SSW,199,0.0,5.0,11,0.00,,,0.00,weatherlink.com 1.10,2013-06-12 21:48:00,
2013-06-12 16:03:00,91.0,30.0,20.27,North,355,0.0,9.0,11,0.00,,,0.00,weatherlink.com 1.10,2013-06-12 22:03:00,
2013-06-12 16:18:00,91.1,30.0,20.26,NE,38,7.0,23.0,11,0.00,,,0.00,weatherlink.com 1.10,2013-06-12 22:18:00,
2013-06-12 16:33:00,88.5,30.0,20.27,North,5,3.0,6.0,12,0.00,,,0.00,weatherlink.com 1.10,2013-06-12 22:33:00,
2013-06-12 16:48:00,88.9,28.0,20.26,West,276,0.0,5.0,11,0.00,,,0.00,weatherlink.com 1.10,2013-06-12 22:48:00,
2013-06-12 17:03:00,88.9,28.0,20.26,West,259,0.0,7.0,11,0.00,,,0.00,weatherlink.com 1.10,2013-06-12 23:03:00,
2013-06-12 17:18:00,88.5,28.0,20.25,SW,225,6.0,13.0,11,0.00,,,0.00,weatherlink.com 1.10,2013-06-12 23:18:00,
2013-06-12 17:33:00,87.6,29.0,20.25,ESE,117,0.0,9.0,12,0.00,,,0.00,weatherlink.com 1.10,2013-06-12 23:33:00,
2013-06-12 17:48:00,87.3,29.0,20.25,SSE,154,0.0,5.0,12,0.00,,,0.00,weatherlink.com 1.10,2013-06-12 23:48:00,
2013-06-12 18:03:00,86.9,30.0,20.25,SSE,155,8.0,12.0,13,0.00,,,0.00,weatherlink.com 1.10,2013-06-13 00:03:00,
2013-06-12 18:18:00,87.0,30.0,20.24,ESE,113,3.0,8.0,13,0.00,,,0.00,weatherlink.com 1.10,2013-06-13 00:18:00,
2013-06-12 18:33:00,87.9,29.0,20.24,SSE,167,7.0,14.0,12,0.00,,,0.00,weatherlink.com 1.10,2013-06-13 00:33:00,
2013-06-12 18:48:00,88.8,30.0,20.24,SW,222,3.0,9.0,12,0.00,,,0.00,weatherlink.com 1.10,2013-06-13 00:48:00,
2013-06-12 19:03:00,89.1,30.0,20.25,WSW,238,5.0,10.0,12,0.00,,,0.00,weatherlink.com 1.10,2013-06-13 01:03:00,
2013-06-12 19:18:00,87.7,35.0,20.25,SE,145,6.0,14.0,15,0.00,,,0.00,weatherlink.com 1.10,2013-06-13 01:18:00,
2013-06-12 19:33:00,85.9,36.0,20.25,SSE,161,5.0,10.0,17,0.00,,,0.00,weatherlink.com 1.10,2013-06-13 01:33:00,
2013-06-12 19:48:00,84.4,33.0,20.25,SE,136,1.0,6.0,16,0.00,,,0.00,weatherlink.com 1.10,2013-06-13 01:48:00,
2013-06-12 20:03:00,83.2,35.0,20.25,SSE,152,1.0,6.0,18,0.00,,,0.00,weatherlink.com 1.10,2013-06-13 02:03:00,
2013-06-12 20:18:00,81.9,34.0,20.28,South,187,1.0,7.0,18,0.00,,,0.00,weatherlink.com 1.10,2013-06-13 02:18:00,
2013-06-12 20:33:00,80.2,25.0,20.30,West,260,0.0,6.0,13,0.00,,,0.00,weatherlink.com 1.10,2013-06-13 02:33:00,
2013-06-12 20:48:00,77.7,23.0,20.31,West,261,0.0,1.0,13,0.00,,,0.00,weatherlink.com 1.10,2013-06-13 02:48:00,
2013-06-12 21:03:00,74.9,24.0,20.31,SW,232,1.0,5.0,15,0.00,,,0.00,weatherlink.com 1.10,2013-06-13 03:03:00,
2013-06-12 21:18:00,74.5,24.0,20.32,SSW,200,5.0,6.0,15,0.00,,,0.00,weatherlink.com 1.10,2013-06-13 03:18:00,
2013-06-12 21:33:00,74.5,27.0,20.33,SSW,194,2.0,6.0,17,0.00,,,0.00,weatherlink.com 1.10,2013-06-13 03:33:00,
2013-06-12 21:48:00,75.4,29.0,20.33,SE,144,3.0,9.0,18,0.00,,,0.00,weatherlink.com 1.10,2013-06-13 03:48:00,
2013-06-12 22:03:00,74.4,29.0,20.34,SE,134,4.0,8.0,19,0.00,,,0.00,weatherlink.com 1.10,2013-06-13 04:03:00,
2013-06-12 22:18:00,74.6,34.0,20.34,SSE,147,4.0,8.0,23,0.00,,,0.00,weatherlink.com 1.10,2013-06-13 04:18:00,
2013-06-12 22:33:00,75.7,35.0,20.33,SE,144,1.0,6.0,23,0.00,,,0.00,weatherlink.com 1.10,2013-06-13 04:33:00,
2013-06-12 22:48:00,75.5,36.0,20.33,SE,146,4.0,7.0,24,0.00,,,0.00,weatherlink.com 1.10,2013-06-13 04:48:00,
2013-06-12 23:03:00,75.9,38.0,20.33,SSE,152,3.0,9.0,25,0.00,,,0.00,weatherlink.com 1.10,2013-06-13 05:03:00,
2013-06-12 23:18:00,76.1,39.0,20.31,SSE,158,3.0,11.0,26,0.00,,,0.00,weatherlink.com 1.10,2013-06-13 05:18:00,
2013-06-12 23:33:00,75.7,39.0,20.31,South,178,5.0,13.0,27,0.00,,,0.00,weatherlink.com 1.10,2013-06-13 05:33:00,
2013-06-12 23:48:00,75.6,38.0,20.32,SE,142,4.0,12.0,26,0.00,,,0.00,weatherlink.com 1.10,2013-06-13 05:48:00,